sensor_id;sensor_type;location;lat;lon;timestamp;P1;durP1;ratioP1;P2;durP2;ratioP2
19705;SDS011;10003;52.506;4.700;2022-08-19T00:02:02;12.73;;;2.37;;
19705;SDS011;10003;52.506;4.700;2022-08-19T00:04:33;1.03;;;1.03;;
19705;SDS011;10003;52.506;4.700;2022-08-19T00:07:03;3.23;;;2.30;;
19705;SDS011;10003;52.506;4.700;2022-08-19T00:09:31;1.83;;;1.73;;
19705;SDS011;10003;52.506;4.700;2022-08-19T00:12:00;1.57;;;1.27;;
19705;SDS011;10003;52.506;4.700;2022-08-19T00:14:30;6.03;;;5.50;;
19705;SDS011;10003;52.506;4.700;2022-08-19T00:16:58;0.63;;;0.63;;
19705;SDS011;10003;52.506;4.700;2022-08-19T00:19:27;1.67;;;1.57;;
19705;SDS011;10003;52.506;4.700;2022-08-19T00:21:56;0.63;;;0.63;;
19705;SDS011;10003;52.506;4.700;2022-08-19T00:24:24;0.50;;;0.50;;
19705;SDS011;10003;52.506;4.700;2022-08-19T00:26:55;0.60;;;0.60;;
19705;SDS011;10003;52.506;4.700;2022-08-19T00:29:44;2.90;;;1.50;;
19705;SDS011;10003;52.506;4.700;2022-08-19T00:32:18;0.30;;;0.30;;
19705;SDS011;10003;52.506;4.700;2022-08-19T00:34:47;4.17;;;1.63;;
19705;SDS011;10003;52.506;4.700;2022-08-19T00:37:15;1.73;;;1.63;;
19705;SDS011;10003;52.506;4.700;2022-08-19T00:39:44;0.37;;;0.37;;
19705;SDS011;10003;52.506;4.700;2022-08-19T00:42:14;0.40;;;0.40;;
19705;SDS011;10003;52.506;4.700;2022-08-19T00:44:44;0.93;;;0.93;;
19705;SDS011;10003;52.506;4.700;2022-08-19T00:47:13;3.10;;;2.27;;
19705;SDS011;10003;52.506;4.700;2022-08-19T00:49:45;1.83;;;1.67;;
19705;SDS011;10003;52.506;4.700;2022-08-19T00:52:18;0.40;;;0.40;;
19705;SDS011;10003;52.506;4.700;2022-08-19T00:54:47;0.97;;;0.97;;
19705;SDS011;10003;52.506;4.700;2022-08-19T00:57:19;0.80;;;0.80;;
19705;SDS011;10003;52.506;4.700;2022-08-19T00:59:52;0.50;;;0.50;;
19705;SDS011;10003;52.506;4.700;2022-08-19T01:02:29;1.03;;;1.03;;
19705;SDS011;10003;52.506;4.700;2022-08-19T01:04:58;0.50;;;0.50;;
19705;SDS011;10003;52.506;4.700;2022-08-19T01:07:27;1.60;;;1.13;;
19705;SDS011;10003;52.506;4.700;2022-08-19T01:10:04;0.90;;;0.90;;
19705;SDS011;10003;52.506;4.700;2022-08-19T01:12:33;0.47;;;0.47;;
19705;SDS011;10003;52.506;4.700;2022-08-19T01:15:04;1.53;;;1.43;;
19705;SDS011;10003;52.506;4.700;2022-08-19T01:17:33;1.70;;;1.60;;
19705;SDS011;10003;52.506;4.700;2022-08-19T01:20:03;1.17;;;1.17;;
19705;SDS011;10003;52.506;4.700;2022-08-19T01:22:34;1.70;;;1.53;;
19705;SDS011;10003;52.506;4.700;2022-08-19T01:25:03;0.90;;;0.90;;
19705;SDS011;10003;52.506;4.700;2022-08-19T01:27:41;0.60;;;0.60;;
19705;SDS011;10003;52.506;4.700;2022-08-19T01:30:11;1.00;;;1.00;;
19705;SDS011;10003;52.506;4.700;2022-08-19T01:32:40;0.87;;;0.87;;
19705;SDS011;10003;52.506;4.700;2022-08-19T01:35:09;0.60;;;0.60;;
19705;SDS011;10003;52.506;4.700;2022-08-19T01:37:43;0.67;;;0.67;;
19705;SDS011;10003;52.506;4.700;2022-08-19T01:40:12;1.93;;;1.40;;
19705;SDS011;10003;52.506;4.700;2022-08-19T01:42:40;2.33;;;2.17;;
19705;SDS011;10003;52.506;4.700;2022-08-19T01:45:09;1.80;;;1.50;;
19705;SDS011;10003;52.506;4.700;2022-08-19T01:47:38;3.63;;;3.20;;
19705;SDS011;10003;52.506;4.700;2022-08-19T01:50:07;2.07;;;1.77;;
19705;SDS011;10003;52.506;4.700;2022-08-19T01:52:36;1.80;;;1.47;;
19705;SDS011;10003;52.506;4.700;2022-08-19T01:55:08;4.67;;;3.17;;
19705;SDS011;10003;52.506;4.700;2022-08-19T01:57:37;3.00;;;2.80;;
19705;SDS011;10003;52.506;4.700;2022-08-19T02:00:07;0.63;;;0.63;;
19705;SDS011;10003;52.506;4.700;2022-08-19T02:02:36;1.43;;;1.33;;
19705;SDS011;10003;52.506;4.700;2022-08-19T02:05:09;1.67;;;1.57;;
19705;SDS011;10003;52.506;4.700;2022-08-19T02:07:38;0.93;;;0.93;;
19705;SDS011;10003;52.506;4.700;2022-08-19T02:10:10;1.50;;;1.50;;
19705;SDS011;10003;52.506;4.700;2022-08-19T02:12:42;1.47;;;1.47;;
19705;SDS011;10003;52.506;4.700;2022-08-19T02:15:10;0.77;;;0.77;;
19705;SDS011;10003;52.506;4.700;2022-08-19T02:17:39;0.30;;;0.30;;
19705;SDS011;10003;52.506;4.700;2022-08-19T02:20:08;0.30;;;0.30;;
19705;SDS011;10003;52.506;4.700;2022-08-19T02:22:36;0.50;;;0.50;;
19705;SDS011;10003;52.506;4.700;2022-08-19T02:25:10;0.30;;;0.30;;
19705;SDS011;10003;52.506;4.700;2022-08-19T02:27:38;6.30;;;2.47;;
19705;SDS011;10003;52.506;4.700;2022-08-19T02:30:08;2.73;;;2.37;;
19705;SDS011;10003;52.506;4.700;2022-08-19T02:32:39;2.10;;;2.00;;
19705;SDS011;10003;52.506;4.700;2022-08-19T02:35:10;0.50;;;0.50;;
19705;SDS011;10003;52.506;4.700;2022-08-19T02:37:39;1.63;;;1.20;;
19705;SDS011;10003;52.506;4.700;2022-08-19T02:40:27;1.33;;;1.33;;
19705;SDS011;10003;52.506;4.700;2022-08-19T02:42:56;1.00;;;1.00;;
19705;SDS011;10003;52.506;4.700;2022-08-19T02:45:24;0.40;;;0.40;;
19705;SDS011;10003;52.506;4.700;2022-08-19T02:47:52;0.37;;;0.37;;
19705;SDS011;10003;52.506;4.700;2022-08-19T02:50:23;0.90;;;0.90;;
19705;SDS011;10003;52.506;4.700;2022-08-19T02:52:51;0.60;;;0.60;;
19705;SDS011;10003;52.506;4.700;2022-08-19T02:55:20;0.30;;;0.30;;
19705;SDS011;10003;52.506;4.700;2022-08-19T02:57:49;0.30;;;0.30;;
19705;SDS011;10003;52.506;4.700;2022-08-19T03:00:18;0.40;;;0.40;;
19705;SDS011;10003;52.506;4.700;2022-08-19T03:02:46;3.00;;;1.77;;
19705;SDS011;10003;52.506;4.700;2022-08-19T03:05:15;0.60;;;0.60;;
19705;SDS011;10003;52.506;4.700;2022-08-19T03:08:03;1.60;;;1.27;;
19705;SDS011;10003;52.506;4.700;2022-08-19T03:10:32;1.30;;;1.27;;
19705;SDS011;10003;52.506;4.700;2022-08-19T03:13:02;1.47;;;1.43;;
19705;SDS011;10003;52.506;4.700;2022-08-19T03:15:30;0.40;;;0.40;;
19705;SDS011;10003;52.506;4.700;2022-08-19T03:17:59;0.30;;;0.30;;
19705;SDS011;10003;52.506;4.700;2022-08-19T03:20:28;0.93;;;0.93;;
19705;SDS011;10003;52.506;4.700;2022-08-19T03:22:56;2.90;;;2.30;;
19705;SDS011;10003;52.506;4.700;2022-08-19T03:25:25;2.30;;;2.10;;
19705;SDS011;10003;52.506;4.700;2022-08-19T03:27:53;2.27;;;2.03;;
19705;SDS011;10003;52.506;4.700;2022-08-19T03:30:23;0.50;;;0.50;;
19705;SDS011;10003;52.506;4.700;2022-08-19T03:32:51;1.77;;;1.63;;
19705;SDS011;10003;52.506;4.700;2022-08-19T03:35:22;2.27;;;1.93;;
19705;SDS011;10003;52.506;4.700;2022-08-19T03:37:51;0.80;;;0.80;;
19705;SDS011;10003;52.506;4.700;2022-08-19T03:40:19;0.60;;;0.60;;
19705;SDS011;10003;52.506;4.700;2022-08-19T03:42:48;0.47;;;0.47;;
19705;SDS011;10003;52.506;4.700;2022-08-19T03:45:16;7.47;;;3.70;;
19705;SDS011;10003;52.506;4.700;2022-08-19T03:47:47;6.40;;;5.40;;
19705;SDS011;10003;52.506;4.700;2022-08-19T03:50:15;19.07;;;13.07;;
19705;SDS011;10003;52.506;4.700;2022-08-19T03:52:47;12.80;;;4.07;;
19705;SDS011;10003;52.506;4.700;2022-08-19T03:55:17;5.73;;;5.30;;
19705;SDS011;10003;52.506;4.700;2022-08-19T03:57:45;10.30;;;7.43;;
19705;SDS011;10003;52.506;4.700;2022-08-19T04:00:15;19.73;;;13.53;;
19705;SDS011;10003;52.506;4.700;2022-08-19T04:02:44;15.73;;;10.47;;
19705;SDS011;10003;52.506;4.700;2022-08-19T04:05:27;20.27;;;12.10;;
19705;SDS011;10003;52.506;4.700;2022-08-19T04:07:56;11.57;;;6.73;;
19705;SDS011;10003;52.506;4.700;2022-08-19T04:10:25;19.87;;;14.10;;
19705;SDS011;10003;52.506;4.700;2022-08-19T04:12:53;12.30;;;7.77;;
19705;SDS011;10003;52.506;4.700;2022-08-19T04:15:22;1.13;;;1.13;;
19705;SDS011;10003;52.506;4.700;2022-08-19T04:17:50;3.27;;;3.03;;
19705;SDS011;10003;52.506;4.700;2022-08-19T04:20:19;3.70;;;3.20;;
19705;SDS011;10003;52.506;4.700;2022-08-19T04:22:49;3.70;;;3.20;;
19705;SDS011;10003;52.506;4.700;2022-08-19T04:25:17;6.00;;;5.40;;
19705;SDS011;10003;52.506;4.700;2022-08-19T04:27:46;29.97;;;15.73;;
19705;SDS011;10003;52.506;4.700;2022-08-19T04:30:14;31.07;;;20.33;;
19705;SDS011;10003;52.506;4.700;2022-08-19T04:32:46;19.53;;;12.97;;
19705;SDS011;10003;52.506;4.700;2022-08-19T04:35:14;28.03;;;15.73;;
19705;SDS011;10003;52.506;4.700;2022-08-19T04:37:49;12.43;;;6.07;;
19705;SDS011;10003;52.506;4.700;2022-08-19T04:40:18;0.37;;;0.37;;
19705;SDS011;10003;52.506;4.700;2022-08-19T04:43:04;2.80;;;2.40;;
19705;SDS011;10003;52.506;4.700;2022-08-19T04:45:32;1.90;;;1.80;;
19705;SDS011;10003;52.506;4.700;2022-08-19T04:48:09;28.23;;;18.50;;
19705;SDS011;10003;52.506;4.700;2022-08-19T04:50:53;23.20;;;13.33;;
19705;SDS011;10003;52.506;4.700;2022-08-19T04:53:25;26.00;;;18.07;;
19705;SDS011;10003;52.506;4.700;2022-08-19T04:55:54;19.27;;;13.33;;
19705;SDS011;10003;52.506;4.700;2022-08-19T04:58:24;24.77;;;12.73;;
19705;SDS011;10003;52.506;4.700;2022-08-19T05:00:52;24.70;;;14.80;;
19705;SDS011;10003;52.506;4.700;2022-08-19T05:03:21;30.10;;;17.43;;
19705;SDS011;10003;52.506;4.700;2022-08-19T05:05:55;28.27;;;18.10;;
19705;SDS011;10003;52.506;4.700;2022-08-19T05:08:26;31.23;;;15.67;;
19705;SDS011;10003;52.506;4.700;2022-08-19T05:10:56;25.70;;;14.57;;
19705;SDS011;10003;52.506;4.700;2022-08-19T05:13:25;23.60;;;14.20;;
19705;SDS011;10003;52.506;4.700;2022-08-19T05:15:54;24.13;;;13.80;;
19705;SDS011;10003;52.506;4.700;2022-08-19T05:18:23;26.93;;;17.03;;
19705;SDS011;10003;52.506;4.700;2022-08-19T05:21:10;17.50;;;11.00;;
19705;SDS011;10003;52.506;4.700;2022-08-19T05:23:58;19.80;;;11.80;;
19705;SDS011;10003;52.506;4.700;2022-08-19T05:26:26;27.87;;;15.80;;
19705;SDS011;10003;52.506;4.700;2022-08-19T05:28:55;27.93;;;15.70;;
19705;SDS011;10003;52.506;4.700;2022-08-19T05:31:23;30.80;;;18.50;;
19705;SDS011;10003;52.506;4.700;2022-08-19T05:33:51;26.07;;;16.80;;
19705;SDS011;10003;52.506;4.700;2022-08-19T05:36:20;22.10;;;10.10;;
19705;SDS011;10003;52.506;4.700;2022-08-19T05:38:48;14.93;;;8.03;;
19705;SDS011;10003;52.506;4.700;2022-08-19T05:41:22;13.10;;;10.63;;
19705;SDS011;10003;52.506;4.700;2022-08-19T05:43:57;29.83;;;18.40;;
19705;SDS011;10003;52.506;4.700;2022-08-19T05:46:25;27.57;;;18.17;;
19705;SDS011;10003;52.506;4.700;2022-08-19T05:48:54;37.00;;;20.17;;
19705;SDS011;10003;52.506;4.700;2022-08-19T05:51:23;43.47;;;27.60;;
19705;SDS011;10003;52.506;4.700;2022-08-19T05:53:54;38.37;;;22.97;;
19705;SDS011;10003;52.506;4.700;2022-08-19T05:56:25;23.13;;;12.87;;
19705;SDS011;10003;52.506;4.700;2022-08-19T05:58:54;39.27;;;23.30;;
19705;SDS011;10003;52.506;4.700;2022-08-19T06:01:24;31.63;;;13.40;;
19705;SDS011;10003;52.506;4.700;2022-08-19T06:03:53;37.23;;;20.13;;
19705;SDS011;10003;52.506;4.700;2022-08-19T06:06:21;36.47;;;19.50;;
19705;SDS011;10003;52.506;4.700;2022-08-19T06:08:49;40.13;;;26.27;;
19705;SDS011;10003;52.506;4.700;2022-08-19T06:11:20;11.50;;;7.40;;
19705;SDS011;10003;52.506;4.700;2022-08-19T06:13:51;37.43;;;24.63;;
19705;SDS011;10003;52.506;4.700;2022-08-19T06:16:25;36.53;;;19.53;;
19705;SDS011;10003;52.506;4.700;2022-08-19T06:18:54;38.80;;;21.40;;
19705;SDS011;10003;52.506;4.700;2022-08-19T06:21:23;29.57;;;18.40;;
19705;SDS011;10003;52.506;4.700;2022-08-19T06:23:53;24.37;;;14.07;;
19705;SDS011;10003;52.506;4.700;2022-08-19T06:26:22;22.23;;;10.10;;
19705;SDS011;10003;52.506;4.700;2022-08-19T06:28:52;35.30;;;22.83;;
19705;SDS011;10003;52.506;4.700;2022-08-19T06:31:21;37.37;;;21.90;;
19705;SDS011;10003;52.506;4.700;2022-08-19T06:33:50;36.70;;;21.33;;
19705;SDS011;10003;52.506;4.700;2022-08-19T06:36:19;26.00;;;16.17;;
19705;SDS011;10003;52.506;4.700;2022-08-19T06:38:56;37.60;;;23.90;;
19705;SDS011;10003;52.506;4.700;2022-08-19T06:41:25;32.73;;;19.57;;
19705;SDS011;10003;52.506;4.700;2022-08-19T06:43:55;18.53;;;10.20;;
19705;SDS011;10003;52.506;4.700;2022-08-19T06:46:24;19.90;;;11.63;;
19705;SDS011;10003;52.506;4.700;2022-08-19T06:48:52;14.63;;;10.17;;
19705;SDS011;10003;52.506;4.700;2022-08-19T06:51:21;10.97;;;9.53;;
19705;SDS011;10003;52.506;4.700;2022-08-19T06:53:50;21.20;;;10.33;;
19705;SDS011;10003;52.506;4.700;2022-08-19T06:56:21;17.53;;;11.77;;
19705;SDS011;10003;52.506;4.700;2022-08-19T06:58:51;16.27;;;8.77;;
19705;SDS011;10003;52.506;4.700;2022-08-19T07:01:21;1.33;;;1.33;;
19705;SDS011;10003;52.506;4.700;2022-08-19T07:03:52;4.00;;;3.67;;
19705;SDS011;10003;52.506;4.700;2022-08-19T07:06:23;21.67;;;9.37;;
19705;SDS011;10003;52.506;4.700;2022-08-19T07:09:10;12.10;;;6.07;;
19705;SDS011;10003;52.506;4.700;2022-08-19T07:11:44;13.90;;;6.63;;
19705;SDS011;10003;52.506;4.700;2022-08-19T07:14:17;8.33;;;6.90;;
19705;SDS011;10003;52.506;4.700;2022-08-19T07:16:48;5.83;;;0.80;;
19705;SDS011;10003;52.506;4.700;2022-08-19T07:19:18;4.00;;;2.50;;
19705;SDS011;10003;52.506;4.700;2022-08-19T07:21:47;7.00;;;5.83;;
19705;SDS011;10003;52.506;4.700;2022-08-19T07:24:17;8.90;;;6.43;;
19705;SDS011;10003;52.506;4.700;2022-08-19T07:26:50;8.17;;;3.70;;
19705;SDS011;10003;52.506;4.700;2022-08-19T07:29:21;13.30;;;6.93;;
19705;SDS011;10003;52.506;4.700;2022-08-19T07:31:56;4.30;;;2.20;;
19705;SDS011;10003;52.506;4.700;2022-08-19T07:34:26;15.67;;;6.80;;
19705;SDS011;10003;52.506;4.700;2022-08-19T07:36:56;4.03;;;3.20;;
19705;SDS011;10003;52.506;4.700;2022-08-19T07:39:27;1.13;;;1.13;;
19705;SDS011;10003;52.506;4.700;2022-08-19T07:41:57;4.53;;;2.63;;
19705;SDS011;10003;52.506;4.700;2022-08-19T07:44:26;1.27;;;1.23;;
19705;SDS011;10003;52.506;4.700;2022-08-19T07:46:57;2.33;;;2.20;;
19705;SDS011;10003;52.506;4.700;2022-08-19T07:49:26;3.93;;;2.43;;
19705;SDS011;10003;52.506;4.700;2022-08-19T07:51:56;1.10;;;0.97;;
19705;SDS011;10003;52.506;4.700;2022-08-19T07:54:29;5.40;;;3.40;;
19705;SDS011;10003;52.506;4.700;2022-08-19T07:56:59;7.50;;;3.63;;
19705;SDS011;10003;52.506;4.700;2022-08-19T07:59:37;1.70;;;1.63;;
19705;SDS011;10003;52.506;4.700;2022-08-19T08:02:17;1.50;;;1.40;;
19705;SDS011;10003;52.506;4.700;2022-08-19T08:04:46;8.47;;;5.63;;
19705;SDS011;10003;52.506;4.700;2022-08-19T08:07:32;3.30;;;2.17;;
19705;SDS011;10003;52.506;4.700;2022-08-19T08:10:21;2.43;;;2.17;;
19705;SDS011;10003;52.506;4.700;2022-08-19T08:12:50;5.50;;;3.17;;
19705;SDS011;10003;52.506;4.700;2022-08-19T08:15:37;10.17;;;5.03;;
19705;SDS011;10003;52.506;4.700;2022-08-19T08:18:10;2.67;;;2.23;;
19705;SDS011;10003;52.506;4.700;2022-08-19T08:20:40;8.33;;;4.93;;
19705;SDS011;10003;52.506;4.700;2022-08-19T08:23:08;8.07;;;6.47;;
19705;SDS011;10003;52.506;4.700;2022-08-19T08:25:53;16.93;;;3.53;;
19705;SDS011;10003;52.506;4.700;2022-08-19T08:28:27;5.80;;;3.27;;
19705;SDS011;10003;52.506;4.700;2022-08-19T08:31:04;21.37;;;4.77;;
19705;SDS011;10003;52.506;4.700;2022-08-19T08:33:39;2.83;;;2.00;;
19705;SDS011;10003;52.506;4.700;2022-08-19T08:36:15;5.57;;;3.70;;
19705;SDS011;10003;52.506;4.700;2022-08-19T08:38:49;5.73;;;3.83;;
19705;SDS011;10003;52.506;4.700;2022-08-19T08:41:25;7.00;;;4.83;;
19705;SDS011;10003;52.506;4.700;2022-08-19T08:44:03;7.17;;;3.97;;
19705;SDS011;10003;52.506;4.700;2022-08-19T08:46:45;3.20;;;2.90;;
19705;SDS011;10003;52.506;4.700;2022-08-19T08:49:28;9.70;;;6.53;;
19705;SDS011;10003;52.506;4.700;2022-08-19T08:51:59;8.40;;;5.80;;
19705;SDS011;10003;52.506;4.700;2022-08-19T08:54:30;8.97;;;5.63;;
19705;SDS011;10003;52.506;4.700;2022-08-19T08:57:02;20.17;;;3.77;;
19705;SDS011;10003;52.506;4.700;2022-08-19T08:59:31;9.73;;;5.50;;
19705;SDS011;10003;52.506;4.700;2022-08-19T09:02:02;2.10;;;1.90;;
19705;SDS011;10003;52.506;4.700;2022-08-19T09:04:50;6.60;;;4.90;;
19705;SDS011;10003;52.506;4.700;2022-08-19T09:07:22;5.50;;;4.20;;
19705;SDS011;10003;52.506;4.700;2022-08-19T09:10:07;5.97;;;3.80;;
19705;SDS011;10003;52.506;4.700;2022-08-19T09:12:43;6.13;;;4.10;;
19705;SDS011;10003;52.506;4.700;2022-08-19T09:15:14;5.73;;;3.63;;
19705;SDS011;10003;52.506;4.700;2022-08-19T09:17:44;4.83;;;3.50;;
19705;SDS011;10003;52.506;4.700;2022-08-19T09:20:31;6.23;;;3.07;;
19705;SDS011;10003;52.506;4.700;2022-08-19T09:23:28;5.57;;;1.67;;
19705;SDS011;10003;52.506;4.700;2022-08-19T09:26:14;5.17;;;2.70;;
19705;SDS011;10003;52.506;4.700;2022-08-19T09:28:58;2.57;;;2.37;;
19705;SDS011;10003;52.506;4.700;2022-08-19T09:31:58;1.03;;;1.03;;
19705;SDS011;10003;52.506;4.700;2022-08-19T09:35:01;29.20;;;3.37;;
19705;SDS011;10003;52.506;4.700;2022-08-19T09:38:02;5.30;;;2.93;;
19705;SDS011;10003;52.506;4.700;2022-08-19T09:40:46;5.00;;;3.53;;
19705;SDS011;10003;52.506;4.700;2022-08-19T09:43:24;5.47;;;2.90;;
19705;SDS011;10003;52.506;4.700;2022-08-19T09:46:04;7.83;;;3.43;;
19705;SDS011;10003;52.506;4.700;2022-08-19T09:48:39;4.57;;;2.23;;
19705;SDS011;10003;52.506;4.700;2022-08-19T09:51:13;3.50;;;1.93;;
19705;SDS011;10003;52.506;4.700;2022-08-19T09:53:58;2.33;;;1.20;;
19705;SDS011;10003;52.506;4.700;2022-08-19T09:56:53;5.43;;;3.37;;
19705;SDS011;10003;52.506;4.700;2022-08-19T09:59:36;7.17;;;3.93;;
19705;SDS011;10003;52.506;4.700;2022-08-19T10:02:26;2.87;;;2.20;;
19705;SDS011;10003;52.506;4.700;2022-08-19T10:04:56;2.77;;;1.57;;
19705;SDS011;10003;52.506;4.700;2022-08-19T10:07:57;5.70;;;3.13;;
19705;SDS011;10003;52.506;4.700;2022-08-19T10:10:39;3.40;;;2.33;;
19705;SDS011;10003;52.506;4.700;2022-08-19T10:13:13;5.07;;;3.63;;
19705;SDS011;10003;52.506;4.700;2022-08-19T10:16:02;5.17;;;4.13;;
19705;SDS011;10003;52.506;4.700;2022-08-19T10:19:08;0.83;;;0.83;;
19705;SDS011;10003;52.506;4.700;2022-08-19T10:21:51;3.70;;;3.40;;
19705;SDS011;10003;52.506;4.700;2022-08-19T10:24:32;1.90;;;1.77;;
19705;SDS011;10003;52.506;4.700;2022-08-19T10:27:22;4.00;;;2.60;;
19705;SDS011;10003;52.506;4.700;2022-08-19T10:29:57;2.70;;;2.50;;
19705;SDS011;10003;52.506;4.700;2022-08-19T10:32:35;2.90;;;2.60;;
19705;SDS011;10003;52.506;4.700;2022-08-19T10:35:14;3.83;;;2.70;;
19705;SDS011;10003;52.506;4.700;2022-08-19T10:37:56;7.43;;;3.07;;
19705;SDS011;10003;52.506;4.700;2022-08-19T10:40:33;5.33;;;3.60;;
19705;SDS011;10003;52.506;4.700;2022-08-19T10:43:11;2.27;;;2.03;;
19705;SDS011;10003;52.506;4.700;2022-08-19T10:46:13;3.43;;;2.53;;
19705;SDS011;10003;52.506;4.700;2022-08-19T10:48:48;4.80;;;4.37;;
19705;SDS011;10003;52.506;4.700;2022-08-19T10:51:19;3.67;;;2.07;;
19705;SDS011;10003;52.506;4.700;2022-08-19T10:54:17;1.17;;;1.17;;
19705;SDS011;10003;52.506;4.700;2022-08-19T10:57:16;5.20;;;3.20;;
19705;SDS011;10003;52.506;4.700;2022-08-19T11:00:27;7.30;;;3.97;;
19705;SDS011;10003;52.506;4.700;2022-08-19T11:03:16;5.23;;;3.67;;
19705;SDS011;10003;52.506;4.700;2022-08-19T11:06:11;5.07;;;2.63;;
19705;SDS011;10003;52.506;4.700;2022-08-19T11:08:43;2.70;;;1.63;;
19705;SDS011;10003;52.506;4.700;2022-08-19T11:11:15;1.47;;;1.37;;
19705;SDS011;10003;52.506;4.700;2022-08-19T11:13:44;4.67;;;3.40;;
19705;SDS011;10003;52.506;4.700;2022-08-19T11:16:18;1.70;;;1.60;;
19705;SDS011;10003;52.506;4.700;2022-08-19T11:18:48;2.23;;;1.93;;
19705;SDS011;10003;52.506;4.700;2022-08-19T11:21:22;4.70;;;2.77;;
19705;SDS011;10003;52.506;4.700;2022-08-19T11:23:53;6.27;;;5.67;;
19705;SDS011;10003;52.506;4.700;2022-08-19T11:26:22;2.33;;;1.53;;
19705;SDS011;10003;52.506;4.700;2022-08-19T11:28:52;7.80;;;4.53;;
19705;SDS011;10003;52.506;4.700;2022-08-19T11:31:32;6.07;;;2.33;;
19705;SDS011;10003;52.506;4.700;2022-08-19T11:34:25;1.40;;;1.27;;
19705;SDS011;10003;52.506;4.700;2022-08-19T11:37:10;3.60;;;2.97;;
19705;SDS011;10003;52.506;4.700;2022-08-19T11:40:06;3.37;;;3.07;;
19705;SDS011;10003;52.506;4.700;2022-08-19T11:42:52;2.40;;;2.17;;
19705;SDS011;10003;52.506;4.700;2022-08-19T11:45:29;6.00;;;2.80;;
19705;SDS011;10003;52.506;4.700;2022-08-19T11:48:28;10.50;;;3.83;;
19705;SDS011;10003;52.506;4.700;2022-08-19T11:50:57;2.30;;;2.07;;
19705;SDS011;10003;52.506;4.700;2022-08-19T11:53:29;3.80;;;2.47;;
19705;SDS011;10003;52.506;4.700;2022-08-19T11:56:07;4.30;;;3.93;;
19705;SDS011;10003;52.506;4.700;2022-08-19T11:58:39;2.40;;;2.20;;
19705;SDS011;10003;52.506;4.700;2022-08-19T12:01:15;2.37;;;2.17;;
19705;SDS011;10003;52.506;4.700;2022-08-19T12:04:01;5.97;;;4.40;;
19705;SDS011;10003;52.506;4.700;2022-08-19T12:06:37;5.63;;;4.10;;
19705;SDS011;10003;52.506;4.700;2022-08-19T12:09:07;3.33;;;1.23;;
19705;SDS011;10003;52.506;4.700;2022-08-19T12:11:41;1.27;;;1.23;;
19705;SDS011;10003;52.506;4.700;2022-08-19T12:14:32;4.23;;;1.60;;
19705;SDS011;10003;52.506;4.700;2022-08-19T12:17:02;2.37;;;1.27;;
19705;SDS011;10003;52.506;4.700;2022-08-19T12:19:35;7.47;;;3.80;;
19705;SDS011;10003;52.506;4.700;2022-08-19T12:22:06;5.93;;;2.47;;
19705;SDS011;10003;52.506;4.700;2022-08-19T12:24:34;3.67;;;2.13;;
19705;SDS011;10003;52.506;4.700;2022-08-19T12:27:03;2.90;;;1.97;;
19705;SDS011;10003;52.506;4.700;2022-08-19T12:29:38;4.50;;;2.17;;
19705;SDS011;10003;52.506;4.700;2022-08-19T12:32:08;1.93;;;1.60;;
19705;SDS011;10003;52.506;4.700;2022-08-19T12:34:41;4.87;;;3.10;;
19705;SDS011;10003;52.506;4.700;2022-08-19T12:37:09;10.20;;;2.33;;
19705;SDS011;10003;52.506;4.700;2022-08-19T12:39:39;4.70;;;2.60;;
19705;SDS011;10003;52.506;4.700;2022-08-19T12:42:09;7.03;;;3.43;;
19705;SDS011;10003;52.506;4.700;2022-08-19T12:44:38;4.73;;;3.53;;
19705;SDS011;10003;52.506;4.700;2022-08-19T12:47:08;2.27;;;2.00;;
19705;SDS011;10003;52.506;4.700;2022-08-19T12:49:40;3.83;;;2.63;;
19705;SDS011;10003;52.506;4.700;2022-08-19T12:52:20;3.83;;;2.53;;
19705;SDS011;10003;52.506;4.700;2022-08-19T12:54:49;5.43;;;4.63;;
19705;SDS011;10003;52.506;4.700;2022-08-19T12:57:20;0.90;;;0.90;;
19705;SDS011;10003;52.506;4.700;2022-08-19T12:59:58;3.17;;;2.43;;
19705;SDS011;10003;52.506;4.700;2022-08-19T13:02:37;1.87;;;1.70;;
19705;SDS011;10003;52.506;4.700;2022-08-19T13:05:09;3.90;;;2.13;;
19705;SDS011;10003;52.506;4.700;2022-08-19T13:07:38;2.80;;;2.50;;
19705;SDS011;10003;52.506;4.700;2022-08-19T13:10:08;4.47;;;3.03;;
19705;SDS011;10003;52.506;4.700;2022-08-19T13:12:38;6.47;;;1.10;;
19705;SDS011;10003;52.506;4.700;2022-08-19T13:15:08;1.87;;;1.20;;
19705;SDS011;10003;52.506;4.700;2022-08-19T13:17:37;1.60;;;1.47;;
19705;SDS011;10003;52.506;4.700;2022-08-19T13:20:06;2.63;;;1.70;;
19705;SDS011;10003;52.506;4.700;2022-08-19T13:22:37;3.43;;;2.07;;
19705;SDS011;10003;52.506;4.700;2022-08-19T13:25:06;5.23;;;3.40;;
19705;SDS011;10003;52.506;4.700;2022-08-19T13:27:35;3.67;;;3.33;;
19705;SDS011;10003;52.506;4.700;2022-08-19T13:30:05;0.70;;;0.70;;
19705;SDS011;10003;52.506;4.700;2022-08-19T13:32:51;3.37;;;2.07;;
19705;SDS011;10003;52.506;4.700;2022-08-19T13:35:43;1.90;;;1.50;;
19705;SDS011;10003;52.506;4.700;2022-08-19T13:38:14;2.53;;;2.33;;
19705;SDS011;10003;52.506;4.700;2022-08-19T13:40:43;6.17;;;2.03;;
19705;SDS011;10003;52.506;4.700;2022-08-19T13:43:13;1.83;;;1.67;;
19705;SDS011;10003;52.506;4.700;2022-08-19T13:45:49;6.80;;;2.40;;
19705;SDS011;10003;52.506;4.700;2022-08-19T13:48:24;6.40;;;2.27;;
19705;SDS011;10003;52.506;4.700;2022-08-19T13:50:53;7.27;;;2.67;;
19705;SDS011;10003;52.506;4.700;2022-08-19T13:53:23;3.57;;;1.60;;
19705;SDS011;10003;52.506;4.700;2022-08-19T13:55:52;3.97;;;2.70;;
19705;SDS011;10003;52.506;4.700;2022-08-19T13:58:21;2.47;;;1.60;;
19705;SDS011;10003;52.506;4.700;2022-08-19T14:00:50;1.30;;;0.83;;
19705;SDS011;10003;52.506;4.700;2022-08-19T14:03:19;0.63;;;0.63;;
19705;SDS011;10003;52.506;4.700;2022-08-19T14:05:47;0.60;;;0.60;;
19705;SDS011;10003;52.506;4.700;2022-08-19T14:08:19;3.00;;;2.70;;
19705;SDS011;10003;52.506;4.700;2022-08-19T14:10:49;5.33;;;1.77;;
19705;SDS011;10003;52.506;4.700;2022-08-19T14:13:19;4.70;;;2.60;;
19705;SDS011;10003;52.506;4.700;2022-08-19T14:15:48;5.17;;;2.27;;
19705;SDS011;10003;52.506;4.700;2022-08-19T14:18:17;13.83;;;2.27;;
19705;SDS011;10003;52.506;4.700;2022-08-19T14:20:46;1.47;;;1.37;;
19705;SDS011;10003;52.506;4.700;2022-08-19T14:23:15;3.60;;;1.93;;
19705;SDS011;10003;52.506;4.700;2022-08-19T14:26:03;1.43;;;1.33;;
19705;SDS011;10003;52.506;4.700;2022-08-19T14:28:33;3.27;;;2.00;;
19705;SDS011;10003;52.506;4.700;2022-08-19T14:31:11;2.40;;;2.07;;
19705;SDS011;10003;52.506;4.700;2022-08-19T14:33:43;4.77;;;1.67;;
19705;SDS011;10003;52.506;4.700;2022-08-19T14:36:14;0.63;;;0.63;;
19705;SDS011;10003;52.506;4.700;2022-08-19T14:38:43;4.97;;;3.43;;
19705;SDS011;10003;52.506;4.700;2022-08-19T14:41:14;1.83;;;1.73;;
19705;SDS011;10003;52.506;4.700;2022-08-19T14:43:44;1.80;;;1.50;;
19705;SDS011;10003;52.506;4.700;2022-08-19T14:46:14;6.80;;;1.90;;
19705;SDS011;10003;52.506;4.700;2022-08-19T14:48:43;2.13;;;1.60;;
19705;SDS011;10003;52.506;4.700;2022-08-19T14:51:16;2.50;;;2.17;;
19705;SDS011;10003;52.506;4.700;2022-08-19T14:53:45;0.93;;;0.90;;
19705;SDS011;10003;52.506;4.700;2022-08-19T14:56:19;2.30;;;1.57;;
19705;SDS011;10003;52.506;4.700;2022-08-19T14:58:48;1.37;;;1.07;;
19705;SDS011;10003;52.506;4.700;2022-08-19T15:01:18;1.30;;;1.20;;
19705;SDS011;10003;52.506;4.700;2022-08-19T15:03:48;3.33;;;1.77;;
19705;SDS011;10003;52.506;4.700;2022-08-19T15:06:19;2.60;;;1.87;;
19705;SDS011;10003;52.506;4.700;2022-08-19T15:08:49;2.00;;;0.90;;
19705;SDS011;10003;52.506;4.700;2022-08-19T15:11:21;1.53;;;1.33;;
19705;SDS011;10003;52.506;4.700;2022-08-19T15:13:50;1.40;;;1.03;;
19705;SDS011;10003;52.506;4.700;2022-08-19T15:16:23;3.47;;;1.90;;
19705;SDS011;10003;52.506;4.700;2022-08-19T15:18:53;0.50;;;0.50;;
19705;SDS011;10003;52.506;4.700;2022-08-19T15:21:23;1.33;;;1.23;;